createdAt,value
2023-02-01T00:00:05.588Z,1011.45
2023-02-01T00:01:05.562Z,1011.46
2023-02-01T00:02:05.539Z,1011.44
2023-02-01T00:03:05.557Z,1011.47
2023-02-01T00:04:05.526Z,1011.44
2023-02-01T00:05:05.519Z,1011.43
2023-02-01T00:06:05.619Z,1011.40
2023-02-01T00:07:05.495Z,1011.45
2023-02-01T00:08:05.476Z,1011.33
2023-02-01T00:09:05.478Z,1011.24
2023-02-01T00:10:05.458Z,1011.29
2023-02-01T00:11:05.453Z,1011.21
2023-02-01T00:12:05.439Z,1011.20
2023-02-01T00:13:05.420Z,1011.20
2023-02-01T00:14:05.415Z,1011.18
2023-02-01T00:15:05.407Z,1011.21
2023-02-01T00:16:05.521Z,1011.24
2023-02-01T00:17:05.394Z,1011.16
2023-02-01T00:18:05.372Z,1011.11
2023-02-01T00:19:05.350Z,1011.11
2023-02-01T00:20:05.349Z,1011.18
2023-02-01T00:21:05.339Z,1011.18
2023-02-01T00:22:05.344Z,1011.13
2023-02-01T00:23:05.313Z,1011.11
2023-02-01T00:24:05.305Z,1011.07
2023-02-01T00:25:05.295Z,1011.13
2023-02-01T00:26:05.292Z,1011.06
2023-02-01T00:27:05.261Z,1011.01
2023-02-01T00:28:05.266Z,1011.00
2023-02-01T00:29:05.245Z,1011.02
2023-02-01T00:30:05.234Z,1011.05
2023-02-01T00:31:05.436Z,1011.02
2023-02-01T00:32:05.392Z,1011.03
2023-02-01T00:33:05.214Z,1011.04
2023-02-01T00:34:05.189Z,1011.00
2023-02-01T00:35:05.175Z,1011.03
2023-02-01T00:36:05.176Z,1011.01
2023-02-01T00:37:05.172Z,1010.99
2023-02-01T00:38:05.160Z,1010.96
2023-02-01T00:39:05.132Z,1010.94
2023-02-01T00:40:05.125Z,1010.94
2023-02-01T00:41:05.109Z,1010.92
2023-02-01T00:42:05.136Z,1010.98
2023-02-01T00:43:05.101Z,1010.90
2023-02-01T00:44:05.084Z,1010.91
2023-02-01T00:45:05.063Z,1010.93
2023-02-01T00:46:05.093Z,1010.82
2023-02-01T00:47:05.042Z,1010.79
2023-02-01T00:48:05.082Z,1010.79
2023-02-01T00:49:05.033Z,1010.75
2023-02-01T00:50:05.021Z,1010.73
2023-02-01T00:51:04.998Z,1010.76
2023-02-01T00:52:04.990Z,1010.77
2023-02-01T00:53:04.979Z,1010.75
2023-02-01T00:54:04.976Z,1010.72
2023-02-01T00:55:04.973Z,1010.67
2023-02-01T00:56:04.962Z,1010.65
2023-02-01T00:57:04.937Z,1010.67
2023-02-01T00:58:04.931Z,1010.67
2023-02-01T00:59:04.922Z,1010.77
2023-02-01T01:00:04.905Z,1010.75
2023-02-01T01:01:04.992Z,1010.78
2023-02-01T01:02:04.921Z,1010.73
2023-02-01T01:03:04.871Z,1010.76
2023-02-01T01:04:04.883Z,1010.77
2023-02-01T01:05:04.841Z,1010.72
2023-02-01T01:06:04.833Z,1010.79
2023-02-01T01:07:04.824Z,1010.75
2023-02-01T01:08:04.813Z,1010.76
2023-02-01T01:09:04.824Z,1010.69
2023-02-01T01:10:04.794Z,1010.70
2023-02-01T01:11:04.776Z,1010.73
2023-02-01T01:12:04.768Z,1010.79
2023-02-01T01:13:04.764Z,1010.81
2023-02-01T01:14:04.750Z,1010.93
2023-02-01T01:15:04.737Z,1010.93
2023-02-01T01:16:04.799Z,1010.95
2023-02-01T01:17:04.709Z,1010.94
2023-02-01T01:18:04.725Z,1010.89
2023-02-01T01:19:04.693Z,1010.98
2023-02-01T01:20:04.717Z,1010.94
2023-02-01T01:21:04.668Z,1011.04
2023-02-01T01:22:04.661Z,1011.05
2023-02-01T01:23:04.647Z,1011.01
2023-02-01T01:24:04.645Z,1011.04
2023-02-01T01:25:04.624Z,1011.01
2023-02-01T01:26:06.227Z,1011.07
2023-02-01T01:27:04.599Z,1010.99
2023-02-01T01:28:04.590Z,1010.87
2023-02-01T01:29:04.589Z,1010.91
2023-02-01T01:30:04.576Z,1010.89
2023-02-01T01:31:04.720Z,1010.89
2023-02-01T01:32:04.555Z,1010.86
2023-02-01T01:33:04.548Z,1010.86
2023-02-01T01:34:04.538Z,1010.83
2023-02-01T01:35:04.512Z,1010.73
2023-02-01T01:36:04.564Z,1010.76
2023-02-01T01:37:04.506Z,1010.74
2023-02-01T01:38:04.483Z,1010.72
2023-02-01T01:39:04.477Z,1010.76
2023-02-01T01:40:04.458Z,1010.71
2023-02-01T01:41:04.446Z,1010.66
2023-02-01T01:42:04.449Z,1010.73
2023-02-01T01:43:04.432Z,1010.63
2023-02-01T01:44:04.432Z,1010.63
2023-02-01T01:45:04.400Z,1010.63
2023-02-01T01:46:04.399Z,1010.60
2023-02-01T01:47:04.378Z,1010.65
2023-02-01T01:48:04.373Z,1010.65
2023-02-01T01:49:04.374Z,1010.62
2023-02-01T01:50:04.357Z,1010.57
2023-02-01T01:51:04.340Z,1010.65
2023-02-01T01:52:04.346Z,1010.56
2023-02-01T01:53:04.325Z,1010.56
2023-02-01T01:54:04.321Z,1010.53
2023-02-01T01:55:04.295Z,1010.52
2023-02-01T01:56:04.281Z,1010.48
2023-02-01T01:57:04.273Z,1010.57
2023-02-01T01:58:04.271Z,1010.58
2023-02-01T01:59:04.245Z,1010.51
2023-02-01T02:00:04.255Z,1010.46
2023-02-01T02:01:04.318Z,1010.52
2023-02-01T02:02:04.272Z,1010.45
2023-02-01T02:03:04.200Z,1010.42
2023-02-01T02:04:04.193Z,1010.34
2023-02-01T02:05:04.190Z,1010.35
2023-02-01T02:06:04.186Z,1010.32
2023-02-01T02:07:04.158Z,1010.33
2023-02-01T02:08:04.184Z,1010.29
2023-02-01T02:09:06.809Z,1010.22
2023-02-01T02:10:04.146Z,1010.25
2023-02-01T02:11:04.127Z,1010.26
2023-02-01T02:12:04.109Z,1010.30
2023-02-01T02:13:04.095Z,1010.23
2023-02-01T02:14:04.084Z,1010.28
2023-02-01T02:15:04.082Z,1010.25
2023-02-01T02:16:04.167Z,1010.30
2023-02-01T02:17:04.046Z,1010.25
2023-02-01T02:18:04.038Z,1010.25
2023-02-01T02:19:04.026Z,1010.25
2023-02-01T02:20:04.024Z,1010.11
2023-02-01T02:21:04.017Z,1010.24
2023-02-01T02:22:03.999Z,1010.24
2023-02-01T02:23:03.982Z,1010.19
2023-02-01T02:24:03.996Z,1010.23
2023-02-01T02:25:03.961Z,1010.17
2023-02-01T02:26:03.964Z,1010.16
2023-02-01T02:27:03.947Z,1010.20
2023-02-01T02:28:03.927Z,1010.17
2023-02-01T02:29:03.916Z,1010.14
2023-02-01T02:30:03.905Z,1010.14
2023-02-01T02:31:03.952Z,1010.06
2023-02-01T02:32:03.889Z,1010.04
2023-02-01T02:33:03.872Z,1010.08
2023-02-01T02:34:03.868Z,1010.05
2023-02-01T02:35:03.846Z,1010.06
2023-02-01T02:36:03.865Z,1010.04
2023-02-01T02:37:03.826Z,1010.03
2023-02-01T02:38:03.822Z,1010.08
2023-02-01T02:39:03.812Z,1010.05
2023-02-01T02:40:03.838Z,1010.00
2023-02-01T02:41:03.782Z,1010.06
2023-02-01T02:42:03.942Z,1010.00
2023-02-01T02:43:03.758Z,1010.00
2023-02-01T02:44:03.757Z,1010.04
2023-02-01T02:45:03.750Z,1009.88
2023-02-01T02:46:03.786Z,1010.06
2023-02-01T02:47:03.718Z,1010.03
2023-02-01T02:48:03.719Z,1010.00
2023-02-01T02:49:10.825Z,1009.95
2023-02-01T02:50:03.685Z,1009.89
2023-02-01T02:51:03.669Z,1009.92
2023-02-01T02:52:03.661Z,1009.96
2023-02-01T02:53:03.654Z,1009.97
2023-02-01T02:54:03.647Z,1009.99
2023-02-01T02:55:03.629Z,1009.93
2023-02-01T02:56:03.649Z,1009.87
2023-02-01T02:57:03.619Z,1009.93
2023-02-01T02:58:03.602Z,1009.88
2023-02-01T02:59:03.591Z,1009.87
2023-02-01T03:00:03.581Z,1009.85
2023-02-01T03:01:03.618Z,1009.90
2023-02-01T03:02:03.576Z,1009.85
2023-02-01T03:03:03.535Z,1009.76
2023-02-01T03:04:03.534Z,1009.71
2023-02-01T03:05:03.515Z,1009.85
2023-02-01T03:06:03.518Z,1009.87
2023-02-01T03:07:03.500Z,1009.80
2023-02-01T03:08:03.496Z,1009.88
2023-02-01T03:09:03.479Z,1009.86
2023-02-01T03:10:03.473Z,1009.81
2023-02-01T03:11:03.460Z,1009.78
2023-02-01T03:12:03.467Z,1009.75
2023-02-01T03:13:03.430Z,1009.72
2023-02-01T03:14:03.438Z,1009.75
2023-02-01T03:15:03.547Z,1009.66
2023-02-01T03:16:03.406Z,1009.67
2023-02-01T03:17:03.391Z,1009.63
2023-02-01T03:18:03.372Z,1009.54
2023-02-01T03:19:03.367Z,1009.51
2023-02-01T03:20:03.363Z,1009.54
2023-02-01T03:21:03.346Z,1009.48
2023-02-01T03:22:03.338Z,1009.44
2023-02-01T03:23:03.320Z,1009.56
2023-02-01T03:24:03.328Z,1009.47
2023-02-01T03:25:03.323Z,1009.45
2023-02-01T03:26:03.295Z,1009.42
2023-02-01T03:27:03.271Z,1009.49
2023-02-01T03:28:03.300Z,1009.44
2023-02-01T03:29:03.262Z,1009.44
2023-02-01T03:30:03.240Z,1009.56
2023-02-01T03:31:03.278Z,1009.48
2023-02-01T03:32:03.311Z,1009.51
2023-02-01T03:33:03.212Z,1009.52
2023-02-01T03:34:03.211Z,1009.60
2023-02-01T03:35:03.205Z,1009.52
2023-02-01T03:36:03.175Z,1009.52
2023-02-01T03:37:03.160Z,1009.59
2023-02-01T03:38:03.161Z,1009.58
2023-02-01T03:39:03.137Z,1009.53
2023-02-01T03:40:03.158Z,1009.49
2023-02-01T03:41:03.147Z,1009.51
2023-02-01T03:42:03.115Z,1009.47
2023-02-01T03:43:03.093Z,1009.48
2023-02-01T03:44:03.122Z,1009.42
2023-02-01T03:45:03.082Z,1009.47
2023-02-01T03:46:03.088Z,1009.43
2023-02-01T03:47:03.074Z,1009.47
2023-02-01T03:48:03.045Z,1009.50
2023-02-01T03:49:03.047Z,1009.49
2023-02-01T03:50:03.029Z,1009.52
2023-02-01T03:51:03.013Z,1009.56
2023-02-01T03:52:03.070Z,1009.55
2023-02-01T03:53:02.984Z,1009.50
2023-02-01T03:54:02.990Z,1009.46
2023-02-01T03:55:02.978Z,1009.50
2023-02-01T03:56:02.958Z,1009.51
2023-02-01T03:57:02.947Z,1009.47
2023-02-01T03:58:02.952Z,1009.45
2023-02-01T03:59:02.922Z,1009.36
2023-02-01T04:00:02.947Z,1009.39
2023-02-01T04:01:02.925Z,1009.44
2023-02-01T04:02:02.969Z,1009.51
2023-02-01T04:03:02.875Z,1009.44
2023-02-01T04:04:02.866Z,1009.47
2023-02-01T04:05:02.873Z,1009.48
2023-02-01T04:06:02.868Z,1009.44
2023-02-01T04:07:02.837Z,1009.30
2023-02-01T04:08:02.826Z,1009.31
2023-02-01T04:09:02.808Z,1009.29
2023-02-01T04:10:02.810Z,1009.27
2023-02-01T04:11:02.789Z,1009.28
2023-02-01T04:12:02.781Z,1009.33
2023-02-01T04:13:02.777Z,1009.26
2023-02-01T04:14:02.754Z,1009.35
2023-02-01T04:15:02.792Z,1009.21
2023-02-01T04:16:02.797Z,1009.27
2023-02-01T04:17:02.738Z,1009.22
2023-02-01T04:18:02.712Z,1009.24
2023-02-01T04:19:02.702Z,1009.21
2023-02-01T04:20:02.691Z,1009.17
2023-02-01T04:21:02.688Z,1009.18
2023-02-01T04:22:02.668Z,1009.11
2023-02-01T04:23:02.655Z,1009.15
2023-02-01T04:24:02.661Z,1009.20
2023-02-01T04:25:02.637Z,1009.13
2023-02-01T04:26:02.639Z,1009.12
2023-02-01T04:27:02.614Z,1009.16
2023-02-01T04:28:02.641Z,1009.14
2023-02-01T04:29:02.592Z,1009.17
2023-02-01T04:30:02.590Z,1009.15
2023-02-01T04:31:02.708Z,1009.16
2023-02-01T04:32:02.575Z,1009.19
2023-02-01T04:33:02.560Z,1009.14
2023-02-01T04:34:02.543Z,1009.11
2023-02-01T04:35:02.527Z,1009.13
2023-02-01T04:36:02.532Z,1009.14
2023-02-01T04:37:02.531Z,1009.11
2023-02-01T04:38:02.506Z,1009.11
2023-02-01T04:39:02.481Z,1009.11
2023-02-01T04:40:02.481Z,1009.12
2023-02-01T04:41:02.470Z,1009.09
2023-02-01T04:42:02.535Z,1009.09
2023-02-01T04:43:02.443Z,1009.16
2023-02-01T04:44:02.427Z,1009.12
2023-02-01T04:45:02.415Z,1009.14
2023-02-01T04:46:02.478Z,1009.12
2023-02-01T04:47:02.545Z,1009.11
2023-02-01T04:48:02.411Z,1009.14
2023-02-01T04:49:02.376Z,1009.14
2023-02-01T04:50:02.374Z,1009.27
2023-02-01T04:51:02.368Z,1009.27
2023-02-01T04:52:02.396Z,1009.21
2023-02-01T04:53:02.343Z,1009.18
2023-02-01T04:54:02.321Z,1009.22
2023-02-01T04:55:02.311Z,1009.20
2023-02-01T04:56:02.295Z,1009.21
2023-02-01T04:57:02.291Z,1009.19
2023-02-01T04:58:02.296Z,1009.17
2023-02-01T04:59:02.274Z,1009.15
2023-02-01T05:00:02.265Z,1009.22
2023-02-01T05:01:02.293Z,1009.12
2023-02-01T05:02:02.222Z,1009.14
2023-02-01T05:03:02.238Z,1009.16
2023-02-01T05:04:02.229Z,1009.17
2023-02-01T05:05:02.289Z,1009.23
2023-02-01T05:06:02.187Z,1009.13
2023-02-01T05:07:02.173Z,1009.22
2023-02-01T05:08:02.167Z,1009.19
2023-02-01T05:09:02.165Z,1009.24
2023-02-01T05:10:02.134Z,1009.20
2023-02-01T05:11:02.152Z,1009.18
2023-02-01T05:12:02.123Z,1009.14
2023-02-01T05:13:02.103Z,1009.13
2023-02-01T05:14:02.660Z,1009.15
2023-02-01T05:15:02.083Z,1009.11
2023-02-01T05:16:02.134Z,1009.12
2023-02-01T05:17:02.064Z,1009.16
2023-02-01T05:18:02.053Z,1009.09
2023-02-01T05:19:02.062Z,1009.11
2023-02-01T05:20:02.092Z,1009.06
2023-02-01T05:21:02.045Z,1009.11
2023-02-01T05:22:02.003Z,1008.98
2023-02-01T05:23:01.999Z,1008.94
2023-02-01T05:24:01.981Z,1008.99
2023-02-01T05:25:02.010Z,1008.97
2023-02-01T05:26:01.962Z,1009.03
2023-02-01T05:27:01.971Z,1009.06
2023-02-01T05:28:01.970Z,1008.98
2023-02-01T05:29:01.930Z,1009.03
2023-02-01T05:30:01.931Z,1009.10
2023-02-01T05:31:01.985Z,1008.88
2023-02-01T05:32:19.405Z,1008.99
2023-02-01T05:33:02.905Z,1009.07
2023-02-01T05:34:01.870Z,1009.02
2023-02-01T05:35:01.862Z,1008.96
2023-02-01T05:36:01.879Z,1009.02
2023-02-01T05:37:01.849Z,1008.95
2023-02-01T05:38:01.830Z,1008.92
2023-02-01T05:39:01.830Z,1008.91
2023-02-01T05:40:01.809Z,1008.88
2023-02-01T05:41:01.801Z,1008.91
2023-02-01T05:42:01.783Z,1008.89
2023-02-01T05:43:01.817Z,1008.84
2023-02-01T05:44:01.786Z,1008.88
2023-02-01T05:45:01.764Z,1008.73
2023-02-01T05:46:01.798Z,1008.89
2023-02-01T05:47:01.728Z,1008.87
2023-02-01T05:48:01.730Z,1008.89
2023-02-01T05:49:01.715Z,1008.88
2023-02-01T05:50:01.694Z,1008.83
2023-02-01T05:51:01.692Z,1008.73
2023-02-01T05:52:01.700Z,1008.79
2023-02-01T05:53:01.684Z,1008.86
2023-02-01T05:54:01.673Z,1008.85
2023-02-01T05:55:01.649Z,1008.87
2023-02-01T05:56:01.648Z,1008.95
2023-02-01T05:57:01.624Z,1008.89
2023-02-01T05:58:01.606Z,1009.03
2023-02-01T05:59:02.655Z,1009.03
2023-02-01T06:00:01.600Z,1008.97
2023-02-01T06:01:01.582Z,1008.95
2023-02-01T06:02:01.560Z,1009.10
2023-02-01T06:03:01.596Z,1009.04
2023-02-01T06:04:01.624Z,1009.14
2023-02-01T06:05:01.571Z,1009.22
2023-02-01T06:06:01.554Z,1009.11
2023-02-01T06:07:01.502Z,1009.13
2023-02-01T06:08:01.526Z,1009.15
2023-02-01T06:09:01.502Z,1009.15
2023-02-01T06:10:01.515Z,1009.13
2023-02-01T06:11:01.477Z,1009.08
2023-02-01T06:12:01.462Z,1009.11
2023-02-01T06:13:01.436Z,1009.15
2023-02-01T06:14:01.429Z,1009.17
2023-02-01T06:15:01.443Z,1009.24
2023-02-01T06:16:01.498Z,1009.14
2023-02-01T06:17:01.404Z,1009.18
2023-02-01T06:18:01.390Z,1009.25
2023-02-01T06:19:01.376Z,1009.21
2023-02-01T06:20:01.373Z,1009.23
2023-02-01T06:21:01.377Z,1009.31
2023-02-01T06:22:01.357Z,1009.30
2023-02-01T06:23:01.339Z,1009.26
2023-02-01T06:24:01.350Z,1009.31
2023-02-01T06:25:01.326Z,1009.32
2023-02-01T06:26:01.299Z,1009.31
2023-02-01T06:27:01.293Z,1009.33
2023-02-01T06:28:01.277Z,1009.30
2023-02-01T06:29:01.268Z,1009.28
2023-02-01T06:30:01.267Z,1009.33
2023-02-01T06:31:01.362Z,1009.34
2023-02-01T06:32:01.300Z,1009.36
2023-02-01T06:33:01.233Z,1009.34
2023-02-01T06:34:01.216Z,1009.26
2023-02-01T06:35:01.207Z,1009.40
2023-02-01T06:36:01.182Z,1009.36
2023-02-01T06:37:01.188Z,1009.33
2023-02-01T06:38:01.188Z,1009.36
2023-02-01T06:39:01.155Z,1009.35
2023-02-01T06:40:01.167Z,1009.27
2023-02-01T06:41:01.131Z,1009.30
2023-02-01T06:42:01.126Z,1009.39
2023-02-01T06:43:01.108Z,1009.30
2023-02-01T06:44:01.117Z,1009.28
2023-02-01T06:45:01.080Z,1009.35
2023-02-01T06:46:01.083Z,1009.49
2023-02-01T06:47:01.153Z,1009.41
2023-02-01T06:48:01.055Z,1009.40
2023-02-01T06:49:01.052Z,1009.46
2023-02-01T06:50:01.054Z,1009.45
2023-02-01T06:51:01.035Z,1009.42
2023-02-01T06:52:01.014Z,1009.30
2023-02-01T06:53:00.996Z,1009.37
2023-02-01T06:54:00.987Z,1009.43
2023-02-01T06:55:00.981Z,1009.42
2023-02-01T06:56:00.999Z,1009.46
2023-02-01T06:57:00.952Z,1009.47
2023-02-01T06:58:00.959Z,1009.48
2023-02-01T06:59:00.936Z,1009.46
2023-02-01T07:00:00.971Z,1009.46
2023-02-01T07:01:00.943Z,1009.46
2023-02-01T07:02:01.025Z,1009.44
2023-02-01T07:03:00.941Z,1009.50
2023-02-01T07:04:00.886Z,1009.50
2023-02-01T07:05:00.868Z,1009.47
2023-02-01T07:06:00.869Z,1009.46
2023-02-01T07:07:00.888Z,1009.46
2023-02-01T07:08:00.831Z,1009.43
2023-02-01T07:09:00.817Z,1009.55
2023-02-01T07:10:00.821Z,1009.57
2023-02-01T07:11:00.799Z,1009.54
2023-02-01T07:12:00.827Z,1009.51
2023-02-01T07:13:00.801Z,1009.58
2023-02-01T07:14:00.785Z,1009.55
2023-02-01T07:15:00.761Z,1009.62
2023-02-01T07:16:00.815Z,1009.53
2023-02-01T07:17:00.742Z,1009.67
2023-02-01T07:18:00.723Z,1009.60
2023-02-01T07:19:00.755Z,1009.60
2023-02-01T07:20:00.717Z,1009.61
2023-02-01T07:21:00.723Z,1009.56
2023-02-01T07:22:00.705Z,1009.56
2023-02-01T07:23:00.672Z,1009.58
2023-02-01T07:24:00.661Z,1009.58
2023-02-01T07:25:00.665Z,1009.69
2023-02-01T07:26:00.648Z,1009.63
2023-02-01T07:27:00.618Z,1009.59
2023-02-01T07:28:00.649Z,1009.60
2023-02-01T07:29:00.633Z,1009.61
2023-02-01T07:30:00.592Z,1009.56
2023-02-01T07:31:00.617Z,1009.68
2023-02-01T07:32:00.566Z,1009.60
2023-02-01T07:33:00.552Z,1009.69
2023-02-01T07:34:00.548Z,1009.68
2023-02-01T07:35:00.536Z,1009.69
2023-02-01T07:36:00.532Z,1009.73
2023-02-01T07:37:00.506Z,1009.71
2023-02-01T07:38:00.509Z,1009.76
2023-02-01T07:39:00.493Z,1009.74
2023-02-01T07:40:00.489Z,1009.73
2023-02-01T07:41:00.476Z,1009.70
2023-02-01T07:42:00.464Z,1009.69
2023-02-01T07:43:00.453Z,1009.67
2023-02-01T07:44:00.488Z,1009.67
2023-02-01T07:45:14.688Z,1009.79
2023-02-01T07:46:01.462Z,1009.70
2023-02-01T07:47:00.395Z,1009.69
2023-02-01T07:48:00.387Z,1009.76
2023-02-01T07:49:00.385Z,1009.81
2023-02-01T07:50:00.378Z,1009.76
2023-02-01T07:51:00.350Z,1009.78
2023-02-01T07:52:00.356Z,1009.81
2023-02-01T07:53:00.330Z,1009.78
2023-02-01T07:54:00.325Z,1009.82
2023-02-01T07:55:00.327Z,1009.84
2023-02-01T07:56:00.356Z,1009.80
2023-02-01T07:57:00.299Z,1009.85
2023-02-01T07:58:00.272Z,1009.84
2023-02-01T07:59:00.270Z,1009.89
2023-02-01T08:00:00.280Z,1009.87
2023-02-01T08:01:00.277Z,1009.84
2023-02-01T08:02:00.242Z,1009.86
2023-02-01T08:03:00.229Z,1009.81
2023-02-01T08:04:00.217Z,1009.78
2023-02-01T08:05:00.199Z,1009.76
2023-02-01T08:06:00.216Z,1009.73
2023-02-01T08:07:00.185Z,1009.77
2023-02-01T08:08:00.163Z,1009.72
2023-02-01T08:09:00.180Z,1009.83
2023-02-01T08:10:00.190Z,1009.80
2023-02-01T08:11:00.131Z,1009.83
2023-02-01T08:12:00.122Z,1009.87
2023-02-01T08:13:00.112Z,1009.84
2023-02-01T08:14:00.120Z,1009.85
2023-02-01T08:15:00.096Z,1009.88
2023-02-01T08:16:00.125Z,1009.84
2023-02-01T08:17:00.092Z,1009.85
2023-02-01T08:18:00.087Z,1009.78
2023-02-01T08:19:00.044Z,1009.88
2023-02-01T08:20:00.058Z,1009.83
2023-02-01T08:21:00.028Z,1009.81
2023-02-01T08:22:00.020Z,1009.87
2023-02-01T08:23:00.005Z,1009.85
2023-02-01T08:23:59.991Z,1009.83
2023-02-01T08:24:59.972Z,1009.82
2023-02-01T08:25:59.979Z,1009.87
2023-02-01T08:26:59.956Z,1009.90
2023-02-01T08:27:59.949Z,1009.82
2023-02-01T08:28:59.933Z,1009.93
2023-02-01T08:29:59.943Z,1009.88
2023-02-01T08:30:59.975Z,1009.91
2023-02-01T08:31:59.945Z,1009.94
2023-02-01T08:32:59.884Z,1009.91
2023-02-01T08:33:59.877Z,1009.96
2023-02-01T08:34:59.910Z,1009.92
2023-02-01T08:35:59.852Z,1009.91
2023-02-01T08:36:59.843Z,1009.96
2023-02-01T08:37:59.829Z,1009.96
2023-02-01T08:38:59.831Z,1009.94
2023-02-01T08:39:59.812Z,1009.95
2023-02-01T08:40:59.805Z,1009.96
2023-02-01T08:41:59.804Z,1009.97
2023-02-01T08:42:59.779Z,1009.95
2023-02-01T08:43:59.769Z,1009.94
2023-02-01T08:44:59.752Z,1010.01
2023-02-01T08:45:59.756Z,1010.02
2023-02-01T08:46:59.739Z,1009.97
2023-02-01T08:47:59.745Z,1010.07
2023-02-01T08:48:59.714Z,1010.03
2023-02-01T08:49:59.689Z,1010.01
2023-02-01T08:50:59.714Z,1010.06
2023-02-01T08:52:03.973Z,1010.04
2023-02-01T08:53:00.665Z,1010.06
2023-02-01T08:53:59.649Z,1010.11
2023-02-01T08:54:59.656Z,1010.02
2023-02-01T08:55:59.654Z,1010.03
2023-02-01T08:56:59.760Z,1010.03
2023-02-01T08:57:59.606Z,1009.99
2023-02-01T08:58:59.599Z,1010.01
2023-02-01T08:59:59.589Z,1009.93
2023-02-01T09:00:59.633Z,1009.88
2023-02-01T09:01:59.569Z,1009.88
2023-02-01T09:02:59.564Z,1009.91
2023-02-01T09:03:59.594Z,1010.02
2023-02-01T09:04:59.525Z,1009.95
2023-02-01T09:05:59.514Z,1009.80
2023-02-01T09:06:59.517Z,1009.92
2023-02-01T09:07:59.514Z,1009.97
2023-02-01T09:08:59.484Z,1009.80
2023-02-01T09:09:59.467Z,1009.83
2023-02-01T09:11:02.060Z,1009.77
2023-02-01T09:11:59.445Z,1009.71
2023-02-01T09:12:59.436Z,1009.75
2023-02-01T09:13:59.449Z,1009.68
2023-02-01T09:14:59.475Z,1009.77
2023-02-01T09:15:59.459Z,1009.79
2023-02-01T09:16:59.391Z,1009.82
2023-02-01T09:17:59.401Z,1009.79
2023-02-01T09:19:22.166Z,1009.68
2023-02-01T09:20:00.380Z,1009.70
2023-02-01T09:20:59.369Z,1009.59
2023-02-01T09:21:59.337Z,1009.61
2023-02-01T09:22:59.335Z,1009.52
2023-02-01T09:23:59.329Z,1009.63
2023-02-01T09:24:59.349Z,1009.61
2023-02-01T09:25:59.285Z,1009.54
2023-02-01T09:26:59.294Z,1009.56
2023-02-01T09:27:59.267Z,1009.47
2023-02-01T09:28:59.277Z,1009.49
2023-02-01T09:29:59.242Z,1009.53
2023-02-01T09:30:59.434Z,1009.51
2023-02-01T09:32:03.908Z,1009.52
2023-02-01T09:33:00.208Z,1009.48
2023-02-01T09:33:59.206Z,1009.45
2023-02-01T09:34:59.191Z,1009.46
2023-02-01T09:35:59.292Z,1009.51
2023-02-01T09:36:59.176Z,1009.48
2023-02-01T09:37:59.164Z,1009.52
2023-02-01T09:38:59.157Z,1009.49
2023-02-01T09:39:59.144Z,1009.44
2023-02-01T09:40:59.123Z,1009.47
2023-02-01T09:41:59.117Z,1009.44
2023-02-01T09:42:59.103Z,1009.42
2023-02-01T09:43:59.089Z,1009.45
2023-02-01T09:44:59.081Z,1009.47
2023-02-01T09:45:59.109Z,1009.41
2023-02-01T09:46:59.058Z,1009.44
2023-02-01T09:47:59.047Z,1009.45
2023-02-01T09:48:59.040Z,1009.48
2023-02-01T09:49:59.023Z,1009.49
2023-02-01T09:50:59.026Z,1009.42
2023-02-01T09:51:59.039Z,1009.45
2023-02-01T09:52:58.994Z,1009.47
2023-02-01T09:53:59.005Z,1009.50
2023-02-01T09:54:58.984Z,1009.47
2023-02-01T09:55:58.949Z,1009.47
2023-02-01T09:56:58.941Z,1009.47
2023-02-01T09:57:58.924Z,1009.38
2023-02-01T09:58:58.918Z,1009.48
2023-02-01T09:59:59.349Z,1009.41
2023-02-01T10:00:58.906Z,1009.41
2023-02-01T10:01:58.891Z,1009.44
2023-02-01T10:02:58.878Z,1009.45
2023-02-01T10:03:58.861Z,1009.45
2023-02-01T10:04:58.884Z,1009.44
2023-02-01T10:05:58.839Z,1009.44
2023-02-01T10:06:58.848Z,1009.54
2023-02-01T10:07:58.847Z,1009.53
2023-02-01T10:08:58.806Z,1009.60
2023-02-01T10:09:58.801Z,1009.56
2023-02-01T10:10:58.785Z,1009.63
2023-02-01T10:11:58.781Z,1009.64
2023-02-01T10:12:58.774Z,1009.61
2023-02-01T10:13:58.746Z,1009.64
2023-02-01T10:14:58.741Z,1009.66
2023-02-01T10:15:58.863Z,1009.66
2023-02-01T10:16:58.750Z,1009.62
2023-02-01T10:17:59.048Z,1009.59
2023-02-01T10:18:58.703Z,1009.54
2023-02-01T10:19:58.680Z,1009.52
2023-02-01T10:20:58.687Z,1009.49
2023-02-01T10:21:58.660Z,1009.54
2023-02-01T10:23:19.578Z,1009.46
2023-02-01T10:24:03.559Z,1009.46
2023-02-01T10:24:59.685Z,1009.54
2023-02-01T10:25:58.616Z,1009.55
2023-02-01T10:26:58.679Z,1009.42
2023-02-01T10:27:58.594Z,1009.42
2023-02-01T10:28:58.583Z,1009.31
2023-02-01T10:29:58.577Z,1009.41
2023-02-01T10:30:58.687Z,1009.28
2023-02-01T10:31:58.662Z,1009.21
2023-02-01T10:32:58.544Z,1009.19
2023-02-01T10:33:58.531Z,1009.13
2023-02-01T10:34:58.518Z,1009.15
2023-02-01T10:35:58.524Z,1009.21
2023-02-01T10:36:58.500Z,1009.12
2023-02-01T10:37:58.479Z,1009.17
2023-02-01T10:38:58.484Z,1009.20
2023-02-01T10:39:58.499Z,1009.07
2023-02-01T10:40:58.460Z,1009.22
2023-02-01T10:41:58.453Z,1009.23
2023-02-01T10:42:58.427Z,1009.23
2023-02-01T10:43:58.421Z,1009.33
2023-02-01T10:44:58.410Z,1009.24
2023-02-01T10:45:58.394Z,1009.21
2023-02-01T10:46:58.400Z,1009.21
2023-02-01T10:47:58.384Z,1009.20
2023-02-01T10:48:58.384Z,1009.15
2023-02-01T10:49:58.356Z,1009.11
2023-02-01T10:50:58.339Z,1009.24
2023-02-01T10:51:58.329Z,1009.20
2023-02-01T10:52:58.310Z,1009.27
2023-02-01T10:53:58.304Z,1009.28
2023-02-01T10:54:58.308Z,1009.22
2023-02-01T10:55:58.296Z,1009.23
2023-02-01T10:56:59.890Z,1009.18
2023-02-01T10:57:58.265Z,1009.20
2023-02-01T10:58:58.245Z,1009.17
2023-02-01T10:59:58.242Z,1009.15
2023-02-01T11:00:58.223Z,1009.08
2023-02-01T11:01:59.660Z,1009.11
2023-02-01T11:02:58.248Z,1009.14
2023-02-01T11:03:58.220Z,1009.20
2023-02-01T11:04:58.177Z,1009.14
2023-02-01T11:05:58.160Z,1009.19
2023-02-01T11:06:58.153Z,1009.21
2023-02-01T11:07:58.141Z,1009.17
2023-02-01T11:08:58.147Z,1009.08
2023-02-01T11:09:58.124Z,1009.04
2023-02-01T11:10:58.109Z,1009.07
2023-02-01T11:11:58.108Z,1009.08
2023-02-01T11:12:58.091Z,1008.99
2023-02-01T11:13:58.082Z,1008.99
2023-02-01T11:14:58.059Z,1008.98
2023-02-01T11:15:58.063Z,1008.97
2023-02-01T11:16:58.061Z,1008.93
2023-02-01T11:17:58.028Z,1009.00
2023-02-01T11:18:58.043Z,1009.00
2023-02-01T11:19:58.011Z,1008.97
2023-02-01T11:20:58.028Z,1008.89
2023-02-01T11:21:57.986Z,1008.98
2023-02-01T11:22:57.980Z,1008.94
2023-02-01T11:23:57.961Z,1008.94
2023-02-01T11:24:57.956Z,1008.90
2023-02-01T11:25:57.958Z,1008.86
2023-02-01T11:26:57.938Z,1008.87
2023-02-01T11:27:57.984Z,1008.90
2023-02-01T11:28:57.912Z,1008.87
2023-02-01T11:29:57.890Z,1008.92
2023-02-01T11:30:58.016Z,1008.87
2023-02-01T11:31:57.870Z,1008.84
2023-02-01T11:32:57.865Z,1008.91
2023-02-01T11:33:57.862Z,1008.84
2023-02-01T11:34:57.842Z,1008.75
2023-02-01T11:35:57.835Z,1008.76
2023-02-01T11:36:57.818Z,1008.78
2023-02-01T11:37:57.808Z,1008.76
2023-02-01T11:38:57.828Z,1008.79
2023-02-01T11:39:57.783Z,1008.77
2023-02-01T11:40:57.786Z,1008.82
2023-02-01T11:41:57.768Z,1008.83
2023-02-01T11:42:57.758Z,1008.84
2023-02-01T11:43:57.837Z,1008.83
2023-02-01T11:44:57.727Z,1008.80
2023-02-01T11:45:57.724Z,1008.88
2023-02-01T11:46:57.777Z,1008.74
2023-02-01T11:47:57.699Z,1008.77
2023-02-01T11:48:57.695Z,1008.71
2023-02-01T11:49:57.666Z,1008.72
2023-02-01T11:50:57.660Z,1008.71
2023-02-01T11:51:57.648Z,1008.63
2023-02-01T11:52:57.711Z,1008.70
2023-02-01T11:53:57.633Z,1008.65
2023-02-01T11:54:57.616Z,1008.71
2023-02-01T11:55:57.608Z,1008.66
2023-02-01T11:56:57.602Z,1008.67
2023-02-01T11:57:57.581Z,1008.60
2023-02-01T11:58:57.575Z,1008.69
2023-02-01T11:59:57.583Z,1008.61
2023-02-01T12:00:57.545Z,1008.65
2023-02-01T12:01:57.727Z,1008.77
2023-02-01T12:02:57.643Z,1008.74
2023-02-01T12:03:57.513Z,1008.56
2023-02-01T12:04:57.508Z,1008.58